createdAt,value
2017-07-31T00:01:24.507Z,20.04
2017-07-31T00:03:53.575Z,20.07
2017-07-31T00:06:22.631Z,20.10
2017-07-31T00:08:51.678Z,20.15
2017-07-31T00:11:20.740Z,20.05
2017-07-31T00:13:49.847Z,19.87
2017-07-31T00:16:19.037Z,19.92
2017-07-31T00:18:48.079Z,19.97
2017-07-31T00:21:17.138Z,20.01
2017-07-31T00:23:46.217Z,20.06
2017-07-31T00:26:15.514Z,20.13
2017-07-31T00:28:44.592Z,20.18
2017-07-31T00:31:13.712Z,20.21
2017-07-31T00:33:42.815Z,20.27
2017-07-31T00:36:11.872Z,20.24
2017-07-31T00:38:40.928Z,20.22
2017-07-31T00:41:09.977Z,20.22
2017-07-31T00:43:39.039Z,20.30
2017-07-31T00:46:08.079Z,20.38
2017-07-31T00:48:37.146Z,20.29
2017-07-31T00:51:06.179Z,20.22
2017-07-31T00:53:35.249Z,20.18
2017-07-31T00:56:04.363Z,20.21
2017-07-31T00:58:33.423Z,20.24
2017-07-31T01:01:02.704Z,20.26
2017-07-31T01:03:31.782Z,20.27
2017-07-31T01:06:00.867Z,20.29
2017-07-31T01:08:29.877Z,20.29
2017-07-31T01:10:58.935Z,20.22
2017-07-31T01:13:28.023Z,20.21
2017-07-31T01:15:57.085Z,20.22
2017-07-31T01:18:26.344Z,20.23
2017-07-31T01:20:55.380Z,20.14
2017-07-31T01:23:24.450Z,20.15
2017-07-31T01:25:53.529Z,20.10
2017-07-31T01:28:22.598Z,20.04
2017-07-31T01:30:51.670Z,19.96
2017-07-31T01:33:20.751Z,19.88
2017-07-31T01:35:49.826Z,19.77
2017-07-31T01:38:18.867Z,19.71
2017-07-31T01:40:47.933Z,19.65
2017-07-31T01:43:17.002Z,19.61
2017-07-31T01:45:46.071Z,19.54
2017-07-31T01:48:15.144Z,19.44
2017-07-31T01:50:44.194Z,19.39
2017-07-31T01:53:13.265Z,19.32
2017-07-31T01:55:42.324Z,19.25
2017-07-31T01:58:11.385Z,19.19
2017-07-31T02:00:40.453Z,19.14
2017-07-31T02:03:09.552Z,19.12
2017-07-31T02:05:38.621Z,19.03
2017-07-31T02:08:07.943Z,18.98
2017-07-31T02:10:37.001Z,18.94
2017-07-31T02:13:06.067Z,18.96
2017-07-31T02:15:35.163Z,18.94
2017-07-31T02:18:04.364Z,18.90
2017-07-31T02:20:33.552Z,18.89
2017-07-31T02:23:02.614Z,18.82
2017-07-31T02:25:31.647Z,18.77
2017-07-31T02:28:00.734Z,18.73
2017-07-31T02:30:29.759Z,18.62
2017-07-31T02:32:58.834Z,18.56
2017-07-31T02:35:27.872Z,18.53
2017-07-31T02:37:56.939Z,18.46
2017-07-31T02:40:26.014Z,18.41
2017-07-31T02:42:55.072Z,18.36
2017-07-31T02:45:24.155Z,18.31
2017-07-31T02:47:53.198Z,18.33
2017-07-31T02:50:22.271Z,18.29
2017-07-31T02:52:51.337Z,18.27
2017-07-31T02:55:20.652Z,18.25
2017-07-31T02:57:49.690Z,18.19
2017-07-31T03:00:18.755Z,18.18
2017-07-31T03:02:48.009Z,18.12
2017-07-31T03:05:17.050Z,18.09
2017-07-31T03:07:46.108Z,18.05
2017-07-31T03:10:15.178Z,18.03
2017-07-31T03:12:44.221Z,18.02
2017-07-31T03:15:13.311Z,18.05
2017-07-31T03:17:42.381Z,18.02
2017-07-31T03:20:11.439Z,18.00
2017-07-31T03:22:41.143Z,17.93
2017-07-31T03:25:10.218Z,17.93
2017-07-31T03:27:39.273Z,17.92
2017-07-31T03:30:08.357Z,17.90
2017-07-31T03:32:37.382Z,17.90
2017-07-31T03:35:06.484Z,17.91
2017-07-31T03:37:35.518Z,17.88
2017-07-31T03:40:04.616Z,17.84
2017-07-31T03:42:33.671Z,17.89
2017-07-31T03:45:02.966Z,17.87
2017-07-31T03:47:31.994Z,17.93
2017-07-31T03:50:01.063Z,17.90
2017-07-31T03:52:30.107Z,17.85
2017-07-31T03:54:59.194Z,17.91
2017-07-31T03:57:28.444Z,17.94
2017-07-31T03:59:57.532Z,17.96
2017-07-31T04:02:26.624Z,17.96
2017-07-31T04:04:55.696Z,17.95
2017-07-31T04:07:24.755Z,17.93
2017-07-31T04:09:53.804Z,17.89
2017-07-31T04:12:22.930Z,17.88
2017-07-31T04:14:51.984Z,17.89
2017-07-31T04:17:21.033Z,17.90
2017-07-31T04:19:50.094Z,17.90
2017-07-31T04:22:19.168Z,17.91
2017-07-31T04:24:48.227Z,17.94
2017-07-31T04:27:17.296Z,17.98
2017-07-31T04:29:46.364Z,18.00
2017-07-31T04:32:15.640Z,18.05
2017-07-31T04:34:44.679Z,18.11
2017-07-31T04:37:13.747Z,18.20
2017-07-31T04:39:42.828Z,18.24
2017-07-31T04:42:11.890Z,18.26
2017-07-31T04:44:40.953Z,18.26
2017-07-31T04:47:10.034Z,18.29
2017-07-31T04:49:39.047Z,18.30
2017-07-31T04:52:08.144Z,18.28
2017-07-31T04:54:37.184Z,18.28
2017-07-31T04:57:06.239Z,18.28
2017-07-31T04:59:35.299Z,18.26
2017-07-31T05:02:04.388Z,18.29
2017-07-31T05:04:33.431Z,18.31
2017-07-31T05:07:02.496Z,18.34
2017-07-31T05:09:31.551Z,18.35
2017-07-31T05:12:00.600Z,18.41
2017-07-31T05:14:29.640Z,18.45
2017-07-31T05:16:58.720Z,18.53
2017-07-31T05:19:27.771Z,18.55
2017-07-31T05:21:56.817Z,18.58
2017-07-31T05:24:25.872Z,18.59
2017-07-31T05:26:54.946Z,18.55
2017-07-31T05:29:24.044Z,18.57
2017-07-31T05:31:53.134Z,18.59
2017-07-31T05:34:22.152Z,18.60
2017-07-31T05:36:51.223Z,18.65
2017-07-31T05:39:20.313Z,18.67
2017-07-31T05:41:49.347Z,18.69
2017-07-31T05:44:18.420Z,18.73
2017-07-31T05:46:47.483Z,18.80
2017-07-31T05:49:16.564Z,18.89
2017-07-31T05:51:45.604Z,19.00
2017-07-31T05:54:14.748Z,19.14
2017-07-31T05:56:43.831Z,19.21
2017-07-31T05:59:12.884Z,19.30
2017-07-31T06:01:41.965Z,19.38
2017-07-31T06:04:11.055Z,19.47
2017-07-31T06:06:40.118Z,19.63
2017-07-31T06:09:09.175Z,19.82
2017-07-31T06:11:38.226Z,19.96
2017-07-31T06:14:07.337Z,20.12
2017-07-31T06:16:36.364Z,20.20
2017-07-31T06:19:05.430Z,20.32
2017-07-31T06:21:34.467Z,20.34
2017-07-31T06:24:03.564Z,20.43
2017-07-31T06:26:32.607Z,20.57
2017-07-31T06:29:01.696Z,20.69
2017-07-31T06:31:30.751Z,20.87
2017-07-31T06:33:59.784Z,21.08
2017-07-31T06:36:28.846Z,21.28
2017-07-31T06:38:57.912Z,21.30
2017-07-31T06:41:26.975Z,21.24
2017-07-31T06:43:56.057Z,21.28
2017-07-31T06:46:25.108Z,21.30
2017-07-31T06:48:54.160Z,21.37
2017-07-31T06:51:23.216Z,21.40
2017-07-31T06:53:52.517Z,21.40
2017-07-31T06:56:21.564Z,21.41
2017-07-31T06:58:50.618Z,21.39
2017-07-31T07:01:19.663Z,21.43
2017-07-31T07:03:48.722Z,21.49
2017-07-31T07:06:17.798Z,21.63
2017-07-31T07:08:46.844Z,21.84
2017-07-31T07:11:15.907Z,22.02
2017-07-31T07:13:45.173Z,22.13
2017-07-31T07:16:14.225Z,22.25
2017-07-31T07:18:43.285Z,22.46
2017-07-31T07:21:12.366Z,22.58
2017-07-31T07:23:41.396Z,22.64
2017-07-31T07:26:10.485Z,22.69
2017-07-31T07:28:39.565Z,22.74
2017-07-31T07:31:08.596Z,22.79
2017-07-31T07:33:37.664Z,22.86
2017-07-31T07:36:06.701Z,22.95
2017-07-31T07:38:35.792Z,23.20
2017-07-31T07:41:04.906Z,23.24
2017-07-31T07:43:33.966Z,23.42
2017-07-31T07:46:03.028Z,23.58
2017-07-31T07:48:32.092Z,23.78
2017-07-31T07:51:01.147Z,23.88
2017-07-31T07:53:30.187Z,23.89
2017-07-31T07:55:59.271Z,24.04
2017-07-31T07:58:28.325Z,24.32
2017-07-31T08:00:57.374Z,24.64
2017-07-31T08:03:26.412Z,24.82
2017-07-31T08:05:55.477Z,24.94
2017-07-31T08:08:24.540Z,24.96
2017-07-31T08:10:53.588Z,25.08
2017-07-31T08:13:22.663Z,25.12
2017-07-31T08:15:51.711Z,25.18
2017-07-31T08:18:20.775Z,25.22
2017-07-31T08:20:49.827Z,25.27
2017-07-31T08:23:18.914Z,25.35
2017-07-31T08:25:47.976Z,25.48
2017-07-31T08:28:17.043Z,25.61
2017-07-31T08:30:46.130Z,25.68
2017-07-31T08:33:15.215Z,25.72
2017-07-31T08:35:44.264Z,25.79
2017-07-31T08:38:13.379Z,25.85
2017-07-31T08:40:42.433Z,25.89
2017-07-31T08:43:11.511Z,25.76
2017-07-31T08:45:40.559Z,25.79
2017-07-31T08:48:09.700Z,25.93
2017-07-31T08:50:38.793Z,26.04
2017-07-31T08:53:07.835Z,26.15
2017-07-31T08:55:36.906Z,26.21
2017-07-31T08:58:05.982Z,26.26
2017-07-31T09:00:35.053Z,26.30
2017-07-31T09:03:04.358Z,26.25
2017-07-31T09:05:33.387Z,26.35
2017-07-31T09:08:02.470Z,26.45
2017-07-31T09:10:31.530Z,26.61
2017-07-31T09:13:00.596Z,26.69
2017-07-31T09:15:29.670Z,26.78
2017-07-31T09:17:58.735Z,26.74
2017-07-31T09:20:27.805Z,26.75
2017-07-31T09:22:56.867Z,26.72
2017-07-31T09:25:25.941Z,26.87
2017-07-31T09:27:54.982Z,27.04
2017-07-31T09:30:24.056Z,27.12
2017-07-31T09:32:53.115Z,27.12
2017-07-31T09:35:22.216Z,27.04
2017-07-31T09:37:51.289Z,27.18
2017-07-31T09:40:20.329Z,27.34
2017-07-31T09:42:49.431Z,27.54
2017-07-31T09:45:18.664Z,27.58
2017-07-31T09:47:47.786Z,27.62
2017-07-31T09:50:16.856Z,27.65
2017-07-31T09:52:45.907Z,27.63
2017-07-31T09:55:15.010Z,27.66
2017-07-31T09:57:44.099Z,27.61
2017-07-31T10:00:13.157Z,27.61
2017-07-31T10:02:42.224Z,27.55
2017-07-31T10:05:11.290Z,27.44
2017-07-31T10:07:40.359Z,27.45
2017-07-31T10:10:09.462Z,27.36
2017-07-31T10:12:38.514Z,27.29
2017-07-31T10:15:07.602Z,27.25
2017-07-31T10:17:36.632Z,27.33
2017-07-31T10:20:05.748Z,27.41
2017-07-31T10:22:34.772Z,27.52
2017-07-31T10:25:03.843Z,27.77
2017-07-31T10:27:32.936Z,27.80
2017-07-31T10:30:02.256Z,27.82
2017-07-31T10:32:31.315Z,27.85
2017-07-31T10:35:00.381Z,27.90
2017-07-31T10:37:29.421Z,27.87
2017-07-31T10:39:58.487Z,27.79
2017-07-31T10:42:27.535Z,27.52
2017-07-31T10:44:56.592Z,27.36
2017-07-31T10:47:25.637Z,27.37
2017-07-31T10:49:54.704Z,27.37
2017-07-31T10:52:23.751Z,27.34
2017-07-31T10:54:52.812Z,27.25
2017-07-31T10:57:21.847Z,27.13
2017-07-31T10:59:50.918Z,27.05
2017-07-31T11:02:19.953Z,26.95
2017-07-31T11:04:48.993Z,26.84
2017-07-31T11:07:18.056Z,26.82
2017-07-31T11:09:47.113Z,26.81
2017-07-31T11:12:16.171Z,26.82
2017-07-31T11:14:45.219Z,26.74
2017-07-31T11:17:14.554Z,26.73
2017-07-31T11:19:43.698Z,26.68
2017-07-31T11:22:13.366Z,26.67
2017-07-31T11:24:42.445Z,26.57
2017-07-31T11:27:11.496Z,26.55
2017-07-31T11:29:40.550Z,26.68
2017-07-31T11:32:09.638Z,26.77
2017-07-31T11:34:38.742Z,26.76
2017-07-31T11:37:08.049Z,26.77
2017-07-31T11:39:37.106Z,26.58
2017-07-31T11:42:06.294Z,26.61
2017-07-31T11:44:35.316Z,26.73
2017-07-31T11:47:04.647Z,26.64
2017-07-31T11:49:33.692Z,26.55
2017-07-31T11:52:02.781Z,26.48
2017-07-31T11:54:31.812Z,26.44
2017-07-31T11:57:00.844Z,26.46
2017-07-31T11:59:29.896Z,26.45
2017-07-31T12:01:58.952Z,26.44
2017-07-31T12:04:28.278Z,26.44
2017-07-31T12:06:57.324Z,26.47
2017-07-31T12:09:26.343Z,26.48
2017-07-31T12:11:55.636Z,26.41
2017-07-31T12:14:24.684Z,26.31
2017-07-31T12:16:53.888Z,26.24
2017-07-31T12:19:22.968Z,26.18
2017-07-31T12:21:52.012Z,26.21
2017-07-31T12:24:21.068Z,26.26
2017-07-31T12:26:50.183Z,26.42
2017-07-31T12:29:19.234Z,26.59
2017-07-31T12:31:48.312Z,26.74
2017-07-31T12:34:17.366Z,26.69
2017-07-31T12:36:46.412Z,26.50
2017-07-31T12:39:15.506Z,26.48
2017-07-31T12:41:44.536Z,26.61
2017-07-31T12:44:13.621Z,26.73
2017-07-31T12:46:42.664Z,26.84
2017-07-31T12:49:11.729Z,26.88
2017-07-31T12:51:40.793Z,26.91
2017-07-31T12:54:09.845Z,26.92
2017-07-31T12:56:39.117Z,26.85
2017-07-31T12:59:08.163Z,26.83
2017-07-31T13:01:37.224Z,26.92
2017-07-31T13:04:06.324Z,26.93
2017-07-31T13:06:35.338Z,26.89
2017-07-31T13:09:04.383Z,26.81
2017-07-31T13:11:33.478Z,26.82
2017-07-31T13:14:03.413Z,26.83
2017-07-31T13:16:32.488Z,26.93
2017-07-31T13:19:01.531Z,26.96
2017-07-31T13:21:30.595Z,26.99
2017-07-31T13:23:59.680Z,26.89
2017-07-31T13:26:28.727Z,26.75
2017-07-31T13:28:57.832Z,26.72
2017-07-31T13:31:26.865Z,26.76
2017-07-31T13:33:55.928Z,26.76
2017-07-31T13:36:24.994Z,26.77
2017-07-31T13:38:54.063Z,26.79
2017-07-31T13:41:23.143Z,26.77
2017-07-31T13:43:52.209Z,26.73
2017-07-31T13:46:21.262Z,26.63
2017-07-31T13:48:50.311Z,26.62
2017-07-31T13:51:19.364Z,26.54
2017-07-31T13:53:48.447Z,26.48
2017-07-31T13:56:17.531Z,26.55
2017-07-31T13:58:46.600Z,26.59
2017-07-31T14:01:15.660Z,26.65
2017-07-31T14:03:44.703Z,26.69
2017-07-31T14:06:13.791Z,26.65
2017-07-31T14:08:42.848Z,26.63
2017-07-31T14:11:11.917Z,26.49
2017-07-31T14:13:40.961Z,26.49
2017-07-31T14:16:10.058Z,26.45
2017-07-31T14:18:39.123Z,26.55
2017-07-31T14:21:08.166Z,26.56
2017-07-31T14:23:37.253Z,26.62
2017-07-31T14:26:06.595Z,26.61
2017-07-31T14:28:35.663Z,26.61
2017-07-31T14:31:04.729Z,26.59
2017-07-31T14:33:33.772Z,26.64
2017-07-31T14:36:02.851Z,26.52
2017-07-31T14:38:31.896Z,26.34
2017-07-31T14:41:01.232Z,26.26
2017-07-31T14:43:30.269Z,26.03
2017-07-31T14:45:59.465Z,26.00
2017-07-31T14:48:28.522Z,26.07
2017-07-31T14:50:57.571Z,26.21
2017-07-31T14:53:26.658Z,26.31
2017-07-31T14:55:55.703Z,26.44
2017-07-31T14:58:24.756Z,26.54
2017-07-31T15:00:53.849Z,26.63
2017-07-31T15:03:22.899Z,26.76
2017-07-31T15:05:51.970Z,26.60
2017-07-31T15:08:21.031Z,26.57
2017-07-31T15:10:50.088Z,26.65
2017-07-31T15:13:19.139Z,26.66
2017-07-31T15:15:48.233Z,26.57
2017-07-31T15:18:17.316Z,26.65
2017-07-31T15:20:46.382Z,26.67
2017-07-31T15:23:15.442Z,26.67
2017-07-31T15:25:44.536Z,26.71
2017-07-31T15:28:13.616Z,26.79
2017-07-31T15:30:42.694Z,26.84
2017-07-31T15:33:11.782Z,26.89
2017-07-31T15:35:40.846Z,26.78
2017-07-31T15:38:09.932Z,26.75
2017-07-31T15:40:38.996Z,26.75
2017-07-31T15:43:08.051Z,26.88
2017-07-31T15:45:37.285Z,26.90
2017-07-31T15:48:06.343Z,27.04
2017-07-31T15:50:35.379Z,27.22
2017-07-31T15:53:04.451Z,27.29
2017-07-31T15:55:33.545Z,27.35
2017-07-31T15:58:02.605Z,27.27
2017-07-31T16:00:31.648Z,27.21
2017-07-31T16:03:00.712Z,27.09
2017-07-31T16:05:29.792Z,27.06
2017-07-31T16:07:58.866Z,27.08
2017-07-31T16:10:27.935Z,27.12
2017-07-31T16:12:57.021Z,27.15
2017-07-31T16:15:26.076Z,27.13
2017-07-31T16:17:55.134Z,27.14
2017-07-31T16:20:24.187Z,27.09
2017-07-31T16:22:53.240Z,27.03
2017-07-31T16:25:22.296Z,27.17
2017-07-31T16:27:51.356Z,27.20
2017-07-31T16:30:20.439Z,27.08
2017-07-31T16:32:49.531Z,27.04
2017-07-31T16:35:18.590Z,26.96
2017-07-31T16:37:47.716Z,27.06
2017-07-31T16:40:34.340Z,27.14
2017-07-31T16:43:20.940Z,27.25
2017-07-31T16:45:50.004Z,27.27
2017-07-31T16:48:30.784Z,27.21
2017-07-31T16:50:59.885Z,27.17
2017-07-31T16:53:28.936Z,27.18
2017-07-31T16:55:57.983Z,27.19
2017-07-31T16:58:27.075Z,27.14
2017-07-31T17:00:56.177Z,27.11
2017-07-31T17:03:25.203Z,27.04
2017-07-31T17:05:54.304Z,26.91
2017-07-31T17:08:23.436Z,26.90
2017-07-31T17:10:52.496Z,26.86
2017-07-31T17:13:21.547Z,26.84
2017-07-31T17:15:50.636Z,26.75
2017-07-31T17:18:19.705Z,26.75
2017-07-31T17:20:48.772Z,26.58
2017-07-31T17:23:17.824Z,26.61
2017-07-31T17:25:46.916Z,26.66
2017-07-31T17:28:15.923Z,26.66
2017-07-31T17:30:44.996Z,26.63
2017-07-31T17:33:14.321Z,26.62
2017-07-31T17:35:43.378Z,26.51
2017-07-31T17:38:12.492Z,26.44
2017-07-31T17:40:41.531Z,26.36
2017-07-31T17:43:10.838Z,26.31
2017-07-31T17:45:39.888Z,26.31
2017-07-31T17:48:08.963Z,26.32
2017-07-31T17:50:38.032Z,26.36
2017-07-31T17:53:07.116Z,26.35
2017-07-31T17:55:36.184Z,26.31
2017-07-31T17:58:05.285Z,26.23
2017-07-31T18:00:34.343Z,26.16
2017-07-31T18:03:03.434Z,26.10
2017-07-31T18:05:32.490Z,26.00
2017-07-31T18:08:01.573Z,26.00
2017-07-31T18:10:30.644Z,25.95
2017-07-31T18:12:59.715Z,25.89
2017-07-31T18:15:28.776Z,25.89
2017-07-31T18:17:57.859Z,25.90
2017-07-31T18:20:26.923Z,25.86
2017-07-31T18:22:55.985Z,25.74
2017-07-31T18:25:25.067Z,25.70
2017-07-31T18:27:54.126Z,25.67
2017-07-31T18:30:23.237Z,25.57
2017-07-31T18:32:52.292Z,25.51
2017-07-31T18:35:21.362Z,25.43
2017-07-31T18:37:50.422Z,25.38
2017-07-31T18:40:19.455Z,25.33
2017-07-31T18:42:48.523Z,25.25
2017-07-31T18:45:18.117Z,25.19
2017-07-31T18:47:47.171Z,25.01
2017-07-31T18:50:16.224Z,24.87
2017-07-31T18:52:45.302Z,24.75
2017-07-31T18:55:14.370Z,24.59
2017-07-31T18:57:44.304Z,24.55
2017-07-31T19:00:13.369Z,24.49
2017-07-31T19:02:42.428Z,24.46
2017-07-31T19:05:11.608Z,24.40
2017-07-31T19:07:40.707Z,24.31
2017-07-31T19:10:09.780Z,24.30
2017-07-31T19:12:38.824Z,24.28
2017-07-31T19:15:07.928Z,24.25
2017-07-31T19:17:36.982Z,24.17
2017-07-31T19:20:06.053Z,24.08
2017-07-31T19:22:35.476Z,24.00
2017-07-31T19:25:04.509Z,23.96
2017-07-31T19:27:33.551Z,23.91
2017-07-31T19:30:02.637Z,23.83
2017-07-31T19:32:31.677Z,23.76
2017-07-31T19:35:00.741Z,23.71
2017-07-31T19:37:29.874Z,23.64
2017-07-31T19:39:58.904Z,23.59
2017-07-31T19:42:27.946Z,23.54
2017-07-31T19:44:57.033Z,23.51
2017-07-31T19:47:26.095Z,23.49
2017-07-31T19:49:55.160Z,23.45
2017-07-31T19:52:24.208Z,23.43
2017-07-31T19:54:53.314Z,23.45
2017-07-31T19:57:22.355Z,23.44
2017-07-31T19:59:51.426Z,23.45
2017-07-31T20:02:20.489Z,23.45
2017-07-31T20:04:50.181Z,23.45
2017-07-31T20:07:19.250Z,23.44
2017-07-31T20:09:48.321Z,23.44
2017-07-31T20:12:17.374Z,23.43
2017-07-31T20:14:46.441Z,23.40
2017-07-31T20:17:15.689Z,23.36
2017-07-31T20:19:44.769Z,23.32
2017-07-31T20:22:13.831Z,23.30
2017-07-31T20:24:42.879Z,23.27
2017-07-31T20:27:11.950Z,23.28
2017-07-31T20:29:41.043Z,23.24
2017-07-31T20:32:10.127Z,23.15
2017-07-31T20:34:39.215Z,23.18
2017-07-31T20:37:08.315Z,23.15
2017-07-31T20:39:37.363Z,23.05
2017-07-31T20:42:06.462Z,22.93
2017-07-31T20:44:35.515Z,22.89
2017-07-31T20:47:04.829Z,22.83
2017-07-31T20:49:33.920Z,22.79
2017-07-31T20:52:02.973Z,22.82
2017-07-31T20:54:32.048Z,22.84
2017-07-31T20:57:01.116Z,22.88
2017-07-31T20:59:30.224Z,22.90
2017-07-31T21:01:59.264Z,22.91
2017-07-31T21:04:28.359Z,22.93
2017-07-31T21:06:57.411Z,22.96
2017-07-31T21:09:26.489Z,22.99
2017-07-31T21:11:55.554Z,23.01
2017-07-31T21:14:24.600Z,23.04
2017-07-31T21:16:53.675Z,23.01
2017-07-31T21:19:22.728Z,23.02
2017-07-31T21:21:51.805Z,23.02
2017-07-31T21:24:20.893Z,22.98
2017-07-31T21:26:49.970Z,22.97
2017-07-31T21:29:19.031Z,22.96
2017-07-31T21:31:48.085Z,22.84
2017-07-31T21:34:17.173Z,22.72
2017-07-31T21:36:46.263Z,22.65
2017-07-31T21:39:15.319Z,22.60
2017-07-31T21:41:44.387Z,22.47
2017-07-31T21:44:13.488Z,22.40
2017-07-31T21:46:42.573Z,22.34
2017-07-31T21:49:11.655Z,22.17
2017-07-31T21:51:40.698Z,22.19
2017-07-31T21:54:09.800Z,22.20
2017-07-31T21:56:38.854Z,22.16
2017-07-31T21:59:07.911Z,22.07
2017-07-31T22:01:36.987Z,22.05
2017-07-31T22:04:06.044Z,22.01
2017-07-31T22:06:35.119Z,22.00
2017-07-31T22:09:04.245Z,22.03
2017-07-31T22:11:33.271Z,21.99
2017-07-31T22:14:02.335Z,22.01
2017-07-31T22:16:36.665Z,22.04
2017-07-31T22:19:05.737Z,22.07
2017-07-31T22:21:40.163Z,22.05
2017-07-31T22:24:09.251Z,21.98
2017-07-31T22:26:38.304Z,21.95
2017-07-31T22:29:07.392Z,21.95
2017-07-31T22:31:36.442Z,21.95
2017-07-31T22:34:05.492Z,22.01
2017-07-31T22:36:34.577Z,22.03
2017-07-31T22:39:03.660Z,22.09
2017-07-31T22:41:32.938Z,22.03
2017-07-31T22:44:01.997Z,21.96
2017-07-31T22:46:31.056Z,21.94
2017-07-31T22:49:00.111Z,21.98
2017-07-31T22:51:29.188Z,21.92
2017-07-31T22:53:58.253Z,21.91
2017-07-31T22:56:27.306Z,21.91
2017-07-31T22:58:56.361Z,21.94
2017-07-31T23:01:25.472Z,21.96
2017-07-31T23:03:54.537Z,21.87
2017-07-31T23:06:50.650Z,21.77
2017-07-31T23:09:19.736Z,21.77
2017-07-31T23:11:48.824Z,21.71
2017-07-31T23:14:18.660Z,21.74
2017-07-31T23:16:47.714Z,21.63
2017-07-31T23:19:17.525Z,21.58
2017-07-31T23:21:46.611Z,21.56
2017-07-31T23:24:15.660Z,21.61
2017-07-31T23:26:44.715Z,21.65
2017-07-31T23:29:13.775Z,21.55
2017-07-31T23:31:42.845Z,21.49
2017-07-31T23:34:11.916Z,21.35
2017-07-31T23:36:41.766Z,21.25
2017-07-31T23:39:10.864Z,21.31
2017-07-31T23:41:39.924Z,21.42
2017-07-31T23:44:09.743Z,21.52
2017-07-31T23:46:39.088Z,21.60
2017-07-31T23:49:08.136Z,21.64
2017-07-31T23:51:37.213Z,21.65
2017-07-31T23:54:07.041Z,21.68
2017-07-31T23:56:36.095Z,21.71
2017-07-31T23:59:05.144Z,21.71
